Time,TemperatureF,DewpointF,PressureIn,WindDirection,WindDirectionDegrees,WindSpeedMPH,WindSpeedGustMPH,Humidity,HourlyPrecipIn,Conditions,Clouds,dailyrainin,SolarRadiationWatts/m^2,SoftwareType,DateUTC
2013-12-18 03:42:00,22.0,19.0,-100.00,WNW,297,4.0,10.0,89,-99.99,,,0.00,0.000000,,2013-12-18 08:42:00,
2013-12-18 03:52:00,22.0,19.0,-100.00,WNW,297,4.0,10.0,89,-99.99,,,0.00,0.000000,,2013-12-18 08:52:00,
2013-12-18 04:03:00,22.0,19.0,-100.00,WNW,297,4.0,10.0,89,-99.99,,,0.00,0.000000,,2013-12-18 09:03:00,
2013-12-18 04:43:00,22.0,19.0,-100.00,WNW,301,4.0,10.0,89,0.00,,,0.00,0.000000,,2013-12-18 09:43:00,
2013-12-18 04:54:00,22.0,19.0,-100.00,WNW,301,4.0,10.0,89,0.00,,,0.00,0.000000,,2013-12-18 09:54:00,
2013-12-18 05:03:00,22.0,19.0,-100.00,WNW,301,4.0,10.0,89,0.00,,,0.00,0.000000,,2013-12-18 10:03:00,
2013-12-18 05:42:00,21.0,18.0,-100.00,NW,304,4.0,9.0,89,0.00,,,0.00,0.000000,,2013-12-18 10:42:00,
2013-12-18 05:52:00,21.0,18.0,-100.00,NW,304,4.0,9.0,89,0.00,,,0.00,0.000000,,2013-12-18 10:52:00,
2013-12-18 06:03:00,21.0,18.0,-100.00,NW,304,4.0,9.0,89,0.00,,,0.00,0.000000,,2013-12-18 11:03:00,
2013-12-18 06:42:00,23.0,20.0,-100.00,WNW,303,5.0,10.0,87,0.00,,,0.00,0.000000,,2013-12-18 11:42:00,
2013-12-18 06:53:00,23.0,20.0,-100.00,WNW,303,5.0,10.0,87,0.00,,,0.00,0.000000,,2013-12-18 11:53:00,
2013-12-18 07:02:00,23.0,20.0,-100.00,WNW,303,5.0,10.0,87,0.00,,,0.00,0.000000,,2013-12-18 12:02:00,
2013-12-18 07:42:00,22.0,18.0,-100.00,WNW,293,4.0,10.0,86,0.00,,,0.00,0.000000,,2013-12-18 12:42:00,
2013-12-18 07:53:00,22.0,18.0,-100.00,WNW,293,4.0,10.0,86,0.00,,,0.00,0.000000,,2013-12-18 12:53:00,
2013-12-18 08:01:00,22.0,18.0,-100.00,WNW,293,4.0,10.0,86,0.00,,,0.00,0.000000,,2013-12-18 13:01:00,
2013-12-18 08:42:00,22.0,18.0,-100.00,WNW,292,4.0,12.0,86,0.00,,,0.00,2.000000,,2013-12-18 13:42:00,
2013-12-18 08:52:00,22.0,18.0,-100.00,WNW,292,4.0,12.0,86,0.00,,,0.00,2.000000,,2013-12-18 13:52:00,
2013-12-18 09:02:00,22.0,18.0,-100.00,WNW,292,4.0,12.0,86,0.00,,,0.00,2.000000,,2013-12-18 14:02:00,
2013-12-18 09:42:00,26.0,19.0,-100.00,West,279,5.0,12.0,74,0.00,,,0.00,19.000000,,2013-12-18 14:42:00,
2013-12-18 09:52:00,26.0,19.0,-100.00,West,279,5.0,12.0,74,0.00,,,0.00,19.000000,,2013-12-18 14:52:00,
2013-12-18 10:02:00,26.0,19.0,-100.00,West,279,5.0,12.0,74,0.00,,,0.00,19.000000,,2013-12-18 15:02:00,
2013-12-18 10:44:00,29.0,18.0,-100.00,WNW,283,7.0,16.0,64,0.00,,,0.00,51.000000,,2013-12-18 15:44:00,
2013-12-18 10:54:00,29.0,18.0,-100.00,WNW,283,7.0,16.0,64,0.00,,,0.00,51.000000,,2013-12-18 15:54:00,
2013-12-18 11:04:00,29.0,18.0,-100.00,WNW,283,7.0,16.0,64,0.00,,,0.00,51.000000,,2013-12-18 16:04:00,
2013-12-18 11:42:00,30.0,21.0,-100.00,West,280,7.0,14.0,69,0.00,,,0.00,48.000000,,2013-12-18 16:42:00,
2013-12-18 11:53:00,30.0,21.0,-100.00,West,280,7.0,14.0,69,0.00,,,0.00,48.000000,,2013-12-18 16:53:00,
2013-12-18 12:02:00,30.0,21.0,-100.00,West,280,7.0,14.0,69,0.00,,,0.00,48.000000,,2013-12-18 17:02:00,
2013-12-18 12:42:00,28.0,19.0,-100.00,WNW,291,6.0,16.0,69,0.00,,,0.00,42.000000,,2013-12-18 17:42:00,
2013-12-18 12:52:00,28.0,19.0,-100.00,WNW,291,6.0,16.0,69,0.00,,,0.00,42.000000,,2013-12-18 17:52:00,
2013-12-18 13:02:00,28.0,19.0,-100.00,WNW,291,6.0,16.0,69,0.00,,,0.00,42.000000,,2013-12-18 18:02:00,
2013-12-18 13:42:00,29.0,18.0,-100.00,West,278,8.0,19.0,63,0.00,,,0.00,59.000000,,2013-12-18 18:42:00,
2013-12-18 13:52:00,29.0,18.0,-100.00,West,278,8.0,19.0,63,0.00,,,0.00,59.000000,,2013-12-18 18:52:00,
2013-12-18 14:02:00,29.0,18.0,-100.00,West,278,8.0,19.0,63,0.00,,,0.00,59.000000,,2013-12-18 19:02:00,
2013-12-18 14:42:00,30.0,16.0,-100.00,WNW,290,7.0,14.0,55,0.00,,,0.00,67.000000,,2013-12-18 19:42:00,
2013-12-18 14:52:00,30.0,16.0,-100.00,WNW,290,7.0,14.0,55,0.00,,,0.00,67.000000,,2013-12-18 19:52:00,
2013-12-18 15:02:00,30.0,16.0,-100.00,WNW,290,7.0,14.0,55,0.00,,,0.00,67.000000,,2013-12-18 20:02:00,
2013-12-18 15:42:00,29.0,17.0,-100.00,West,276,6.0,15.0,60,0.01,,,0.01,51.000000,,2013-12-18 20:42:00,
2013-12-18 15:53:00,29.0,17.0,-100.00,West,276,6.0,15.0,60,0.01,,,0.01,51.000000,,2013-12-18 20:53:00,
2013-12-18 16:03:00,29.0,17.0,-100.00,West,276,6.0,15.0,60,0.01,,,0.01,51.000000,,2013-12-18 21:03:00,
2013-12-18 16:43:00,27.0,16.0,-100.00,WNW,288,7.0,14.0,62,0.00,,,0.01,15.000000,,2013-12-18 21:43:00,
2013-12-18 16:53:00,27.0,16.0,-100.00,WNW,288,7.0,14.0,62,0.00,,,0.01,15.000000,,2013-12-18 21:53:00,
2013-12-18 17:03:00,27.0,16.0,-100.00,WNW,288,7.0,14.0,62,0.00,,,0.01,15.000000,,2013-12-18 22:03:00,
2013-12-18 17:43:00,25.0,15.0,-100.00,WNW,294,6.0,12.0,66,0.00,,,0.01,2.000000,,2013-12-18 22:43:00,
2013-12-18 17:53:00,25.0,15.0,-100.00,WNW,294,6.0,12.0,66,0.00,,,0.01,2.000000,,2013-12-18 22:53:00,
2013-12-18 18:02:00,25.0,15.0,-100.00,WNW,294,6.0,12.0,66,0.00,,,0.01,2.000000,,2013-12-18 23:02:00,
2013-12-18 18:42:00,25.0,17.0,-100.00,WNW,282,3.0,10.0,70,0.00,,,0.01,0.000000,,2013-12-18 23:42:00,
2013-12-18 18:53:00,25.0,17.0,-100.00,WNW,282,3.0,10.0,70,0.00,,,0.01,0.000000,,2013-12-18 23:53:00,
2013-12-18 19:02:00,25.0,17.0,-100.00,WNW,282,3.0,10.0,70,0.00,,,0.01,0.000000,,2013-12-19 00:02:00,
2013-12-18 19:42:00,25.0,17.0,-100.00,WNW,286,4.0,9.0,72,0.00,,,0.01,0.000000,,2013-12-19 00:42:00,
2013-12-18 19:52:00,25.0,17.0,-100.00,WNW,286,4.0,9.0,72,0.00,,,0.01,0.000000,,2013-12-19 00:52:00,
2013-12-18 20:02:00,25.0,17.0,-100.00,WNW,286,4.0,9.0,72,0.00,,,0.01,0.000000,,2013-12-19 01:02:00,
2013-12-18 20:42:00,25.0,18.0,-100.00,WNW,290,6.0,13.0,73,0.00,,,0.01,0.000000,,2013-12-19 01:42:00,
2013-12-18 20:52:00,25.0,18.0,-100.00,WNW,290,6.0,13.0,73,0.00,,,0.01,0.000000,,2013-12-19 01:52:00,
2013-12-18 21:01:00,25.0,18.0,-100.00,WNW,290,6.0,13.0,73,0.00,,,0.01,0.000000,,2013-12-19 02:01:00,
2013-12-18 21:52:00,24.0,16.0,-100.00,WNW,286,5.0,12.0,71,0.00,,,0.01,0.000000,,2013-12-19 02:52:00,
2013-12-18 22:02:00,24.0,16.0,-100.00,WNW,286,5.0,12.0,71,0.00,,,0.01,0.000000,,2013-12-19 03:02:00,
2013-12-18 22:43:00,22.0,15.0,-100.00,WNW,291,3.0,11.0,74,0.00,,,0.01,0.000000,,2013-12-19 03:43:00,
2013-12-18 22:54:00,22.0,15.0,-100.00,WNW,291,3.0,11.0,74,0.00,,,0.01,0.000000,,2013-12-19 03:54:00,
2013-12-18 23:03:00,22.0,15.0,-100.00,WNW,291,3.0,11.0,74,0.00,,,0.01,0.000000,,2013-12-19 04:03:00,
2013-12-18 23:43:00,21.0,16.0,-100.00,WNW,301,3.0,11.0,80,0.00,,,0.01,0.000000,,2013-12-19 04:43:00,
2013-12-18 23:53:00,21.0,16.0,-100.00,WNW,301,3.0,11.0,80,0.00,,,0.01,0.000000,,2013-12-19 04:53:00,